Time;durP1;ratioP1;P1;durP2;ratioP2;P2;SDS_P1;SDS_P2;PMS_P1;PMS_P2;Temp;Humidity;BMP_temperature;BMP_pressure;BME280_temperature;BME280_humidity;BME280_pressure;Samples;Min_cycle;Max_cycle;Signal;HPM_P1;HPM_P2
2023/12/24 00:11:32;;;;;;;1.13;0.50;;;;;;;0.54;77.39;98940.56;32006215;27;41665;-67
2023/12/24 00:26:32;;;;;;;1.73;1.20;;;;;;;0.47;77.92;98954.19;32005745;27;20057;-67
2023/12/24 00:41:33;;;;;;;3.33;0.80;;;;;;;0.46;77.90;98981.38;32002946;27;41586;-65
2023/12/24 00:56:34;;;;;;;2.08;0.90;;;;;;;0.38;78.22;98990.88;32001829;27;20510;-66
2023/12/24 01:11:34;;;;;;;2.30;1.05;;;;;;;0.38;78.32;98988.25;32000819;27;42771;-66
2023/12/24 01:26:36;;;;;;;3.08;1.20;;;;;;;0.45;78.40;99013.78;32000388;27;41800;-67
2023/12/24 01:41:37;;;;;;;2.38;1.00;;;;;;;0.45;78.66;99018.19;31999589;27;20055;-66
2023/12/24 01:56:39;;;;;;;2.83;1.40;;;;;;;0.35;78.74;99012.09;32002605;27;20035;-66
2023/12/24 02:11:39;;;;;;;3.42;1.15;;;;;;;0.31;78.30;99022.84;32018871;27;20039;-67
2023/12/24 02:26:51;;;;;;;2.83;1.30;;;;;;;0.35;78.72;99012.09;32018113;27;20027;-67
2023/12/24 02:41:51;;;;;;;3.45;1.50;;;;;;;0.35;79.00;99004.25;32015406;27;20086;-67
2023/12/24 02:56:51;;;;;;;2.83;1.50;;;;;;;0.33;79.02;99009.63;32014091;27;41179;-67
2023/12/24 03:11:51;;;;;;;2.40;1.10;;;;;;;0.33;79.63;99007.81;32013227;27;20031;-67
2023/12/24 03:26:52;;;;;;;2.05;1.25;;;;;;;0.33;79.41;98994.72;32011725;27;41659;-67
2023/12/24 03:41:52;;;;;;;2.00;1.25;;;;;;;0.33;79.38;98999.97;32010169;27;20051;-66
2023/12/24 03:56:53;;;;;;;6.28;1.50;;;;;;;0.31;79.51;98995.81;32006973;27;41753;-67
2023/12/24 04:11:53;;;;;;;1.77;1.10;;;;;;;0.28;79.64;99012.63;32006461;27;20502;-67
2023/12/24 04:26:54;;;;;;;1.13;0.80;;;;;;;0.21;79.63;98995.78;32003933;27;20035;-67
2023/12/24 04:41:54;;;;;;;0.73;0.50;;;;;;;0.18;79.62;98996.06;32002709;27;20047;-67
2023/12/24 04:56:54;;;;;;;1.27;0.60;;;;;;;0.20;79.73;98993.31;32000887;27;42856;-66
2023/12/24 05:11:55;;;;;;;2.92;0.80;;;;;;;0.23;79.71;98983.38;32000975;27;20032;-67
2023/12/24 05:26:55;;;;;;;3.40;1.05;;;;;;;0.30;80.05;98986.28;31999128;27;42855;-67
2023/12/24 05:41:55;;;;;;;3.65;1.95;;;;;;;0.39;79.88;98968.97;32018875;27;20058;-65
2023/12/24 05:56:55;;;;;;;4.93;2.42;;;;;;;0.37;79.59;98953.38;32016526;27;41480;-66
2023/12/24 06:11:56;;;;;;;3.15;2.13;;;;;;;0.27;80.01;98953.34;32015627;27;42841;-66
2023/12/24 06:26:56;;;;;;;5.97;2.88;;;;;;;0.32;79.93;98945.91;32014263;27;41510;-65
2023/12/24 06:41:56;;;;;;;3.05;1.90;;;;;;;0.29;80.05;98940.94;32012279;27;40627;-67
2023/12/24 06:56:56;;;;;;;4.07;1.75;;;;;;;0.30;80.37;98945.22;32009823;27;41507;-67
2023/12/24 07:11:57;;;;;;;5.72;1.95;;;;;;;0.32;80.23;98935.41;32010330;27;41409;-67
2023/12/24 07:26:57;;;;;;;3.75;2.22;;;;;;;0.45;80.16;98935.19;32010704;27;20455;-66
2023/12/24 07:41:57;;;;;;;6.70;2.70;;;;;;;0.51;80.31;98952.16;32006553;27;20479;-66
2023/12/24 07:56:58;;;;;;;3.72;1.48;;;;;;;0.40;80.27;98936.56;32002946;27;41633;-66
2023/12/24 08:11:58;;;;;;;4.15;1.52;;;;;;;0.56;80.41;98915.88;32002789;27;43515;-67
2023/12/24 08:26:58;;;;;;;5.68;2.75;;;;;;;0.57;80.13;98907.03;32003625;27;41865;-67
2023/12/24 08:41:58;;;;;;;3.70;1.88;;;;;;;0.60;80.50;98896.31;32000229;27;41560;-67
2023/12/24 08:56:59;;;;;;;3.53;2.15;;;;;;;0.64;80.59;98881.09;31999763;27;20075;-67
2023/12/24 09:11:59;;;;;;;5.22;2.78;;;;;;;0.77;80.64;98862.50;31997693;27;41807;-65
2023/12/24 09:27:00;;;;;;;5.93;3.42;;;;;;;0.83;80.25;98859.28;31997945;27;21822;-65
2023/12/24 09:42:01;;;;;;;5.90;3.35;;;;;;;1.13;80.60;98833.81;31993669;27;20043;-67
2023/12/24 09:57:01;;;;;;;8.00;3.72;;;;;;;1.43;80.35;98821.44;31993385;27;36603;-67
2023/12/24 10:12:05;;;;;;;7.68;4.07;;;;;;;1.68;80.38;98794.50;31993674;27;20035;-67
2023/12/24 10:27:08;;;;;;;10.00;4.93;;;;;;;1.94;79.99;98783.28;32009979;27;20092;-67
2023/12/24 10:42:08;;;;;;;12.80;6.25;;;;;;;2.42;79.85;98764.59;32012263;27;20289;-66
2023/12/24 10:57:12;;;;;;;14.50;6.45;;;;;;;2.99;79.77;98741.31;32010063;27;40614;-66
2023/12/24 11:12:32;;;;;;;16.33;8.50;;;;;;;3.20;79.31;98729.56;32010685;27;20046;-66
2023/12/24 11:27:52;;;;;;;16.90;10.07;;;;;;;3.90;79.80;98707.34;32009352;27;20035;-66
2023/12/24 11:42:52;;;;;;;15.57;8.27;;;;;;;4.46;79.83;98693.47;32005627;27;20104;-67
2023/12/24 11:57:52;;;;;;;9.18;5.03;;;;;;;5.00;79.99;98680.47;32003765;27;41481;-67
2023/12/24 12:12:53;;;;;;;8.18;3.83;;;;;;;5.62;80.48;98662.94;32004522;27;20026;-66
2023/12/24 12:27:53;;;;;;;7.57;3.63;;;;;;;6.02;79.67;98663.66;32003644;27;20034;-68
2023/12/24 12:42:54;;;;;;;5.07;2.30;;;;;;;6.14;79.59;98660.56;31999675;27;20058;-65
2023/12/24 12:57:54;;;;;;;7.43;3.20;;;;;;;6.34;79.55;98667.03;31998359;27;41881;-65
2023/12/24 13:13:23;;;;;;;6.50;3.13;;;;;;;6.17;79.45;98665.53;31997982;27;40392;-68
2023/12/24 13:28:24;;;;;;;8.82;4.28;;;;;;;5.90;79.64;98654.47;31997939;27;20472;-66
2023/12/24 13:43:24;;;;;;;10.05;4.15;;;;;;;6.09;79.88;98647.91;31995016;27;20112;-66
2023/12/24 13:58:25;;;;;;;8.25;3.03;;;;;;;6.47;79.92;98657.63;32006646;27;41362;-66
2023/12/24 14:13:25;;;;;;;9.32;2.72;;;;;;;6.72;79.81;98648.41;32017973;27;20508;-66
2023/12/24 14:28:26;;;;;;;5.90;3.05;;;;;;;7.05;79.81;98647.19;32015030;27;41622;-65
2023/12/24 14:43:26;;;;;;;4.25;2.20;;;;;;;7.31;79.85;98620.19;32013062;27;43583;-66
2023/12/24 14:58:26;;;;;;;3.40;1.80;;;;;;;7.56;79.99;98643.66;32012579;27;41482;-65
2023/12/24 15:13:26;;;;;;;3.60;1.92;;;;;;;7.76;79.47;98628.78;32010209;27;42789;-66
2023/12/24 15:28:27;;;;;;;6.80;2.45;;;;;;;7.85;78.91;98620.72;32009383;27;43097;-65
2023/12/24 15:43:27;;;;;;;5.45;3.13;;;;;;;7.83;78.99;98628.03;32009064;27;20138;-64
2023/12/24 15:58:28;;;;;;;6.53;2.80;;;;;;;7.92;78.37;98616.28;32007414;27;20031;-65
2023/12/24 16:13:28;;;;;;;6.70;2.17;;;;;;;8.02;78.64;98610.63;32005791;27;20063;-66
2023/12/24 16:28:28;;;;;;;5.95;2.80;;;;;;;7.93;77.73;98594.88;32002900;27;42695;-65
2023/12/24 16:43:28;;;;;;;6.95;2.95;;;;;;;7.79;77.39;98615.16;32002174;27;41514;-64
2023/12/24 16:58:30;;;;;;;7.00;2.50;;;;;;;7.72;77.01;98600.19;32002506;27;20055;-65
2023/12/24 17:13:30;;;;;;;6.18;2.72;;;;;;;7.70;76.87;98581.03;31999412;27;41723;-65
2023/12/24 17:28:30;;;;;;;4.93;2.03;;;;;;;7.75;76.85;98592.69;32004672;27;27813;-67
2023/12/24 17:43:30;;;;;;;4.90;1.92;;;;;;;7.82;76.50;98583.94;32020920;27;40848;-65
2023/12/24 17:58:31;;;;;;;4.07;1.70;;;;;;;7.89;76.03;98574.25;32017406;27;41813;-66
2023/12/24 18:13:31;;;;;;;3.40;2.13;;;;;;;7.90;76.38;98568.75;32018969;27;20140;-66
2023/12/24 18:28:31;;;;;;;3.13;1.60;;;;;;;7.91;76.32;98541.22;32017271;27;42706;-66
2023/12/24 18:43:31;;;;;;;3.65;1.95;;;;;;;7.97;75.93;98543.09;32012758;27;41310;-67
2023/12/24 18:58:32;;;;;;;3.75;2.05;;;;;;;7.97;75.81;98521.88;32012242;27;42762;-65
2023/12/24 19:13:32;;;;;;;2.45;1.33;;;;;;;8.04;75.86;98513.97;32012449;27;20027;-65
2023/12/24 19:28:32;;;;;;;5.07;2.13;;;;;;;8.21;75.45;98487.13;32010614;27;41620;-66
2023/12/24 19:43:33;;;;;;;2.95;1.20;;;;;;;8.40;75.15;98478.41;32008816;27;20051;-65
2023/12/24 19:58:33;;;;;;;4.10;1.52;;;;;;;8.39;74.92;98479.44;32007212;27;20392;-66
2023/12/24 20:13:33;;;;;;;3.90;2.08;;;;;;;8.17;75.33;98448.75;32006224;27;41589;-65
2023/12/24 20:28:33;;;;;;;5.78;1.85;;;;;;;8.16;76.55;98434.66;32005495;27;20035;-65
2023/12/24 20:43:34;;;;;;;4.38;1.52;;;;;;;8.11;76.77;98418.53;32003132;27;42870;-66
2023/12/24 20:58:34;;;;;;;2.72;1.33;;;;;;;8.06;77.47;98429.69;32001121;27;32838;-66
2023/12/24 21:13:35;;;;;;;1.95;0.93;;;;;;;8.04;77.85;98418.50;32000144;27;43019;-66
2023/12/24 21:28:37;;;;;;;1.75;0.95;;;;;;;8.06;78.40;98427.06;31999532;27;20061;-65
2023/12/24 21:43:38;;;;;;;1.77;0.90;;;;;;;8.10;79.15;98411.56;31998899;27;20039;-65
2023/12/24 21:58:38;;;;;;;1.40;0.88;;;;;;;8.17;79.15;98424.88;31998184;27;20031;-66
2023/12/24 22:13:40;;;;;;;3.90;1.05;;;;;;;8.26;79.52;98374.09;32000659;27;43042;-66
2023/12/24 22:28:40;;;;;;;3.63;1.38;;;;;;;8.38;79.22;98382.28;32017736;27;20112;-66
2023/12/24 22:43:40;;;;;;;3.00;1.40;;;;;;;8.54;79.65;98377.66;32017224;27;20078;-67
2023/12/24 22:58:42;;;;;;;1.83;0.65;;;;;;;8.89;79.61;98383.59;32015263;27;20030;-66
2023/12/24 23:13:42;;;;;;;2.35;1.10;;;;;;;9.10;79.57;98371.97;32013892;27;20023;-67
2023/12/24 23:28:43;;;;;;;1.60;0.80;;;;;;;9.47;78.96;98358.22;32010802;27;42810;-66
2023/12/24 23:43:43;;;;;;;0.77;0.55;;;;;;;9.79;78.65;98343.19;32010768;27;20050;-65
2023/12/24 23:58:43;;;;;;;1.38;0.40;;;;;;;10.11;77.91;98369.84;32008814;27;41603;-66
